Rbd Italia — ICQC — position and weather

sailwx.info

Track history (hours):
 
Tides and Currents Weather Stations Pressure Air Temp Water Temp Dewpoint Dewpoint Depression Visibility Wind Speed Wind Dir Waves Ship Positions

Rbd Italia

Last reported at 2016-May-27 15:33 UTC. Time now 2016-May-28 00:03 UTC.
Position S 28°48' E 032°03'.

Length 229 m; draft 9.9 m.

Type: Cargo ship. MMSI: 247303200.

Date/timePositionNaut miles runAvg speedWind from/ knotsBaromVisibWave heightAir tempDewpointWater temp
2016-May-27 15:33S 28°48' E 032°03'0 0.0
2016-May-27 14:33S 28°48' E 032°03'0 0.0
2016-May-27 13:21S 28°48' E 032°03'0 0.0
2016-May-27 12:33S 28°48' E 032°03'0 0.0
2016-May-27 11:33S 28°48' E 032°03'  
2016-May-24 17:24S 28°58' E 032°09'0 0.0
2016-May-24 16:33S 28°58' E 032°09'0 0.0
2016-May-24 15:24S 28°58' E 032°09'0 0.1
2016-May-24 14:33S 28°58' E 032°09'0 0.0
2016-May-24 08:06S 28°59' E 032°09'0 0.0
2016-May-24 07:30S 28°59' E 032°09'0 0.0
2016-May-24 06:33S 28°59' E 032°09'0 0.0
2016-May-24 05:33S 28°59' E 032°09'19 1.7
2016-May-23 18:13S 29°17' E 032°08'5 7.1
2016-May-23 17:33S 29°22' E 032°06'7 6.9
2016-May-23 16:33S 29°28' E 032°02'8 8.2
2016-May-23 15:33S 29°34' E 031°56'1110.8
2016-May-23 14:33S 29°43' E 031°48'1111.1
2016-May-23 13:33S 29°52' E 031°41'1111.0
2016-May-23 12:33S 30°01' E 031°34'1111.4
2016-May-23 11:33S 30°10' E 031°26'1212.0
2016-May-23 10:33S 30°19' E 031°17'1212.3
2016-May-23 09:33S 30°28' E 031°08'1212.3
2016-May-23 08:33S 30°38' E 030°59'1212.2
2016-May-23 07:34S 30°47' E 030°49'1311.7
2016-May-23 06:27S 30°57' E 030°39'1010.9
2016-May-23 05:31S 31°05' E 030°32'  
Track history (hours):
 
Tides and Currents Weather Stations Pressure Air Temp Water Temp Dewpoint Dewpoint Depression Visibility Wind Speed Wind Dir Waves Ship Positions

Rbd Italia

Last reported at 2016-May-27 15:33 UTC. Time now 2016-May-28 00:03 UTC.
Position S 28°48' E 032°03'.

Length 229 m; draft 9.9 m.

Type: Cargo ship. MMSI: 247303200.

Date/timePositionNaut miles runAvg speedWind from/ knotsBaromVisibWave heightAir tempDewpointWater temp
2016-May-27 15:33S 28°48' E 032°03'0 0.0
2016-May-27 14:33S 28°48' E 032°03'0 0.0
2016-May-27 13:21S 28°48' E 032°03'0 0.0
2016-May-27 12:33S 28°48' E 032°03'0 0.0
2016-May-27 11:33S 28°48' E 032°03'  
2016-May-24 17:24S 28°58' E 032°09'0 0.0
2016-May-24 16:33S 28°58' E 032°09'0 0.0
2016-May-24 15:24S 28°58' E 032°09'0 0.1
2016-May-24 14:33S 28°58' E 032°09'0 0.0
2016-May-24 08:06S 28°59' E 032°09'0 0.0
2016-May-24 07:30S 28°59' E 032°09'0 0.0
2016-May-24 06:33S 28°59' E 032°09'0 0.0
2016-May-24 05:33S 28°59' E 032°09'19 1.7
2016-May-23 18:13S 29°17' E 032°08'5 7.1
2016-May-23 17:33S 29°22' E 032°06'7 6.9
2016-May-23 16:33S 29°28' E 032°02'8 8.2
2016-May-23 15:33S 29°34' E 031°56'1110.8
2016-May-23 14:33S 29°43' E 031°48'1111.1
2016-May-23 13:33S 29°52' E 031°41'1111.0
2016-May-23 12:33S 30°01' E 031°34'1111.4
2016-May-23 11:33S 30°10' E 031°26'1212.0
2016-May-23 10:33S 30°19' E 031°17'1212.3
2016-May-23 09:33S 30°28' E 031°08'1212.3
2016-May-23 08:33S 30°38' E 030°59'1212.2
2016-May-23 07:34S 30°47' E 030°49'1311.7
2016-May-23 06:27S 30°57' E 030°39'1010.9
2016-May-23 05:31S 31°05' E 030°32'  

Dump ship's entire track history